createdAt,value
2024-05-09T00:00:36.075Z,54.99
2024-05-09T00:03:07.734Z,56.07
2024-05-09T00:05:35.832Z,56.89
2024-05-09T00:08:03.381Z,57.35
2024-05-09T00:10:36.248Z,56.62
2024-05-09T00:13:06.442Z,55.17
2024-05-09T00:15:33.921Z,54.77
2024-05-09T00:18:01.671Z,54.87
2024-05-09T00:20:36.817Z,55.13
2024-05-09T00:23:07.680Z,55.50
2024-05-09T00:25:35.496Z,55.82
2024-05-09T00:28:02.883Z,56.34
2024-05-09T00:30:34.883Z,57.02
2024-05-09T00:33:08.059Z,56.94
2024-05-09T00:35:36.592Z,55.40
2024-05-09T00:38:03.994Z,54.89
2024-05-09T00:40:41.641Z,54.90
2024-05-09T00:43:14.399Z,55.14
2024-05-09T00:45:42.515Z,55.69
2024-05-09T00:48:10.709Z,56.10
2024-05-09T00:50:41.409Z,56.46
2024-05-09T00:53:11.982Z,57.32
2024-05-09T00:55:39.111Z,57.19
2024-05-09T00:58:06.126Z,55.85
2024-05-09T01:00:38.896Z,55.07
2024-05-09T01:03:09.601Z,55.04
2024-05-09T01:05:38.867Z,55.43
2024-05-09T01:08:06.451Z,55.94
2024-05-09T01:10:35.333Z,56.20
2024-05-09T01:13:06.720Z,56.34
2024-05-09T01:15:33.859Z,57.05
2024-05-09T01:18:01.401Z,56.81
2024-05-09T01:20:39.136Z,55.20
2024-05-09T01:23:09.418Z,54.17
2024-05-09T01:25:36.952Z,54.29
2024-05-09T01:28:04.432Z,54.59
2024-05-09T01:30:35.141Z,55.03
2024-05-09T01:33:09.265Z,55.75
2024-05-09T01:35:38.433Z,56.43
2024-05-09T01:38:05.386Z,56.93
2024-05-09T01:40:37.918Z,57.31
2024-05-09T01:43:07.902Z,57.31
2024-05-09T01:45:35.704Z,56.05
2024-05-09T01:48:03.296Z,55.53
2024-05-09T01:50:38.211Z,55.36
2024-05-09T01:53:09.328Z,55.91
2024-05-09T01:55:36.255Z,56.32
2024-05-09T01:58:03.124Z,56.88
2024-05-09T02:00:38.342Z,57.54
2024-05-09T02:03:09.696Z,57.47
2024-05-09T02:05:37.196Z,55.85
2024-05-09T02:08:04.953Z,55.22
2024-05-09T02:10:33.216Z,55.28
2024-05-09T02:13:00.699Z,55.72
2024-05-09T02:15:27.580Z,55.90
2024-05-09T02:17:54.596Z,56.28
2024-05-09T02:22:51.508Z,57.81
2024-05-09T02:25:21.724Z,57.71
2024-05-09T02:27:48.668Z,56.27
2024-05-09T02:30:22.845Z,55.80
2024-05-09T02:32:57.322Z,55.95
2024-05-09T02:35:24.622Z,56.31
2024-05-09T02:37:51.510Z,56.63
2024-05-09T02:40:25.413Z,57.25
2024-05-09T02:42:56.144Z,57.76
2024-05-09T02:45:24.641Z,57.60
2024-05-09T02:47:51.536Z,56.40
2024-05-09T02:50:26.577Z,55.83
2024-05-09T02:53:00.974Z,56.02
2024-05-09T02:55:28.119Z,56.37
2024-05-09T02:57:55.030Z,56.99
2024-05-09T03:00:26.759Z,57.56
2024-05-09T03:03:02.088Z,58.07
2024-05-09T03:05:29.100Z,57.54
2024-05-09T03:07:55.993Z,55.68
2024-05-09T03:10:28.324Z,54.78
2024-05-09T03:12:56.141Z,54.96
2024-05-09T03:15:22.973Z,55.46
2024-05-09T03:17:50.067Z,55.37
2024-05-09T03:20:20.761Z,56.26
2024-05-09T03:22:52.679Z,56.49
2024-05-09T03:25:21.003Z,57.07
2024-05-09T03:27:48.368Z,57.22
2024-05-09T03:30:28.756Z,55.96
2024-05-09T03:33:02.522Z,55.43
2024-05-09T03:35:29.863Z,55.71
2024-05-09T03:37:56.845Z,56.04
2024-05-09T03:40:26.623Z,56.25
2024-05-09T03:42:56.026Z,56.71
2024-05-09T03:45:22.773Z,56.81
2024-05-09T03:47:49.712Z,57.75
2024-05-09T03:50:22.756Z,57.97
2024-05-09T03:52:56.712Z,56.38
2024-05-09T03:55:23.577Z,56.22
2024-05-09T03:57:50.322Z,56.26
2024-05-09T04:00:22.609Z,56.54
2024-05-09T04:02:58.997Z,56.48
2024-05-09T04:05:26.941Z,56.68
2024-05-09T04:07:54.667Z,57.02
2024-05-09T04:10:30.174Z,57.70
2024-05-09T04:12:59.910Z,57.09
2024-05-09T04:15:26.774Z,55.99
2024-05-09T04:17:53.946Z,55.59
2024-05-09T04:20:32.350Z,55.70
2024-05-09T04:23:06.034Z,55.91
2024-05-09T04:25:32.958Z,54.71
2024-05-09T04:27:59.951Z,55.94
2024-05-09T04:30:35.995Z,56.24
2024-05-09T04:33:07.121Z,56.24
2024-05-09T04:35:35.680Z,56.89
2024-05-09T04:38:03.352Z,57.80
2024-05-09T04:40:34.319Z,56.22
2024-05-09T04:43:04.332Z,54.63
2024-05-09T04:45:31.611Z,53.52
2024-05-09T04:47:58.976Z,53.86
2024-05-09T04:50:35.169Z,53.27
2024-05-09T04:53:06.224Z,52.96
2024-05-09T04:55:36.277Z,52.73
2024-05-09T04:58:03.213Z,52.01
2024-05-09T05:00:36.051Z,53.12
2024-05-09T05:03:07.462Z,54.46
2024-05-09T05:05:37.508Z,53.06
2024-05-09T05:08:05.078Z,51.28
2024-05-09T05:10:36.210Z,50.46
2024-05-09T05:13:18.093Z,50.52
2024-05-09T05:15:46.431Z,50.06
2024-05-09T05:18:14.888Z,49.50
2024-05-09T05:20:42.335Z,50.87
2024-05-09T05:23:14.094Z,49.29
2024-05-09T05:25:41.656Z,49.32
2024-05-09T05:28:08.625Z,49.35
2024-05-09T05:30:37.313Z,48.92
2024-05-09T05:33:06.038Z,47.76
2024-05-09T05:35:34.138Z,47.33
2024-05-09T05:38:01.321Z,47.40
2024-05-09T05:40:35.769Z,46.51
2024-05-09T05:43:08.996Z,46.44
2024-05-09T05:45:36.293Z,46.49
2024-05-09T05:48:06.246Z,46.28
2024-05-09T05:50:36.886Z,46.29
2024-05-09T05:53:05.912Z,46.55
2024-05-09T05:55:32.982Z,45.88
2024-05-09T05:58:01.349Z,46.12
2024-05-09T06:00:34.882Z,45.64
2024-05-09T06:03:05.762Z,44.64
2024-05-09T06:05:33.399Z,45.65
2024-05-09T06:08:00.652Z,45.58
2024-05-09T06:10:37.148Z,45.21
2024-05-09T06:13:07.006Z,45.01
2024-05-09T06:15:34.103Z,44.60
2024-05-09T06:18:01.547Z,43.52
2024-05-09T06:20:35.593Z,44.11
2024-05-09T06:23:05.919Z,44.16
2024-05-09T06:25:33.089Z,43.37
2024-05-09T06:28:03.286Z,42.52
2024-05-09T06:30:38.356Z,41.37
2024-05-09T06:33:09.107Z,41.68
2024-05-09T06:35:37.148Z,42.06
2024-05-09T06:38:04.866Z,40.99
2024-05-09T06:40:37.487Z,41.65
2024-05-09T06:43:13.788Z,40.39
2024-05-09T06:45:41.101Z,40.53
2024-05-09T06:48:11.387Z,40.10
2024-05-09T06:50:39.810Z,39.21
2024-05-09T06:53:07.975Z,39.32
2024-05-09T06:55:35.799Z,37.85
2024-05-09T06:58:05.038Z,37.28
2024-05-09T07:00:38.820Z,38.83
2024-05-09T07:03:13.101Z,37.64
2024-05-09T07:05:42.119Z,38.69
2024-05-09T07:08:09.228Z,38.33
2024-05-09T07:10:36.994Z,37.27
2024-05-09T07:13:10.761Z,37.56
2024-05-09T07:15:37.930Z,37.95
2024-05-09T07:18:09.513Z,37.85
2024-05-09T07:20:39.057Z,36.78
2024-05-09T07:23:09.055Z,36.71
2024-05-09T07:25:36.223Z,37.65
2024-05-09T07:28:03.785Z,37.41
2024-05-09T07:30:34.100Z,37.17
2024-05-09T07:33:03.413Z,36.46
2024-05-09T07:35:31.195Z,35.94
2024-05-09T07:37:58.776Z,35.11
2024-05-09T07:40:33.078Z,34.63
2024-05-09T07:43:04.267Z,35.91
2024-05-09T07:45:47.970Z,35.61
2024-05-09T07:53:39.289Z,33.16
2024-05-09T07:56:10.171Z,33.83
2024-05-09T07:58:38.611Z,33.19
2024-05-09T08:01:05.830Z,32.59
2024-05-09T08:03:34.338Z,30.72
2024-05-09T08:06:01.429Z,29.94
2024-05-09T08:08:28.289Z,29.39
2024-05-09T08:10:55.335Z,29.76
2024-05-09T08:13:22.402Z,29.37
2024-05-09T08:15:49.608Z,26.38
2024-05-09T08:18:17.830Z,24.38
2024-05-09T08:20:48.144Z,25.06
2024-05-09T08:23:15.005Z,26.34
2024-05-09T08:25:42.052Z,27.36
2024-05-09T08:28:09.124Z,26.80
2024-05-09T08:30:37.862Z,25.97
2024-05-09T08:33:06.699Z,25.96
2024-05-09T08:35:34.974Z,24.76
2024-05-09T08:38:05.984Z,26.02
2024-05-09T08:40:36.113Z,26.37
2024-05-09T08:43:12.486Z,26.76
2024-05-09T08:45:42.647Z,25.88
2024-05-09T08:48:11.035Z,25.04
2024-05-09T08:50:40.379Z,25.16
2024-05-09T08:53:08.049Z,25.09
2024-05-09T08:55:40.096Z,26.50
2024-05-09T08:58:14.586Z,25.72
2024-05-09T09:00:41.977Z,24.64
2024-05-09T09:03:09.646Z,25.19
2024-05-09T09:05:38.816Z,24.57
2024-05-09T09:08:08.237Z,25.66
2024-05-09T09:10:35.707Z,24.57
2024-05-09T09:13:09.433Z,25.72
2024-05-09T09:15:47.207Z,25.12
2024-05-09T09:18:15.233Z,24.85
2024-05-09T09:20:42.982Z,24.73
2024-05-09T09:23:09.989Z,26.40
2024-05-09T09:25:41.131Z,25.27
2024-05-09T09:28:08.366Z,26.46
2024-05-09T09:30:42.255Z,26.87
2024-05-09T09:33:09.787Z,26.77
2024-05-09T09:35:39.455Z,24.81
2024-05-09T09:38:07.016Z,25.27
2024-05-09T09:40:38.628Z,25.64
2024-05-09T09:43:14.013Z,25.43
2024-05-09T09:45:42.295Z,28.82
2024-05-09T09:48:09.283Z,27.53
2024-05-09T09:50:36.355Z,25.39
2024-05-09T09:53:03.947Z,24.98
2024-05-09T09:55:32.621Z,28.04
2024-05-09T09:57:59.460Z,26.67
2024-05-09T10:00:32.367Z,27.31
2024-05-09T10:03:01.439Z,22.03
2024-05-09T10:05:29.213Z,23.20
2024-05-09T10:07:56.310Z,26.16
2024-05-09T10:10:30.405Z,24.76
2024-05-09T10:13:06.351Z,24.35
2024-05-09T10:15:46.536Z,26.52
2024-05-09T10:18:14.572Z,26.17
2024-05-09T10:20:44.755Z,25.47
2024-05-09T10:23:25.160Z,22.87
2024-05-09T10:25:58.879Z,22.89
2024-05-09T10:28:29.064Z,22.30
2024-05-09T10:31:12.909Z,24.27
2024-05-09T10:33:49.698Z,23.14
2024-05-09T10:36:21.786Z,23.82
2024-05-09T10:38:49.440Z,25.57
2024-05-09T10:41:16.807Z,25.14
2024-05-09T10:43:43.820Z,24.48
2024-05-09T10:46:10.960Z,25.24
2024-05-09T10:48:38.340Z,24.36
2024-05-09T10:51:05.637Z,23.59
2024-05-09T10:53:32.604Z,21.13
2024-05-09T10:55:59.935Z,19.32
2024-05-09T10:58:27.107Z,19.41
2024-05-09T11:00:57.757Z,21.08
2024-05-09T11:03:24.824Z,21.39
2024-05-09T11:05:52.201Z,23.01
2024-05-09T11:08:22.438Z,24.11
2024-05-09T11:10:50.967Z,23.59
2024-05-09T11:13:27.693Z,23.88
2024-05-09T11:15:54.888Z,24.72
2024-05-09T11:18:25.433Z,23.37
2024-05-09T11:20:54.582Z,22.69
2024-05-09T11:23:22.236Z,21.07
2024-05-09T11:25:52.657Z,18.45
2024-05-09T11:28:19.592Z,20.52
2024-05-09T11:30:47.135Z,20.49
2024-05-09T11:33:18.370Z,20.22
2024-05-09T11:35:46.198Z,20.36
2024-05-09T11:38:13.247Z,19.97
2024-05-09T11:40:40.283Z,20.15
2024-05-09T11:43:07.477Z,19.44
2024-05-09T11:45:34.556Z,18.91
2024-05-09T11:48:01.908Z,17.71
2024-05-09T11:50:33.162Z,18.99
2024-05-09T11:53:02.714Z,19.67
2024-05-09T11:55:30.488Z,19.85
2024-05-09T11:57:57.711Z,20.88
2024-05-09T12:00:33.035Z,20.45
2024-05-09T12:03:04.760Z,19.70
2024-05-09T12:05:32.628Z,21.05
2024-05-09T12:08:00.084Z,18.98
2024-05-09T12:10:33.113Z,20.64
2024-05-09T12:13:04.382Z,20.32
2024-05-09T12:15:32.771Z,21.83
2024-05-09T12:18:02.768Z,23.68
2024-05-09T12:20:36.811Z,24.22
2024-05-09T12:23:06.702Z,23.02
2024-05-09T12:25:33.768Z,23.18
2024-05-09T12:28:00.883Z,22.95
2024-05-09T12:30:35.854Z,23.73
2024-05-09T12:33:08.992Z,23.80
2024-05-09T12:35:36.204Z,23.17
2024-05-09T12:38:03.361Z,20.82
2024-05-09T12:40:36.485Z,21.96
2024-05-09T12:43:10.152Z,22.37
2024-05-09T12:45:38.629Z,20.95
2024-05-09T12:48:08.553Z,19.70
2024-05-09T12:50:36.714Z,20.97
2024-05-09T12:53:05.107Z,21.51
2024-05-09T12:55:40.539Z,22.20
2024-05-09T12:58:18.846Z,21.58
2024-05-09T13:00:46.318Z,19.33
2024-05-09T13:03:13.734Z,19.33
2024-05-09T13:05:41.061Z,20.45
2024-05-09T13:08:50.171Z,22.19
2024-05-09T13:11:16.573Z,22.19
2024-05-09T13:13:43.871Z,21.32
2024-05-09T13:16:10.172Z,23.91
2024-05-09T13:18:36.780Z,23.00
2024-05-09T13:21:03.538Z,24.23
2024-05-09T13:23:30.218Z,22.10
2024-05-09T13:25:56.519Z,23.36
2024-05-09T13:28:22.928Z,23.52
2024-05-09T13:30:49.445Z,24.13
2024-05-09T13:33:17.400Z,24.16
2024-05-09T13:35:47.703Z,24.33
2024-05-09T13:38:20.346Z,23.82
2024-05-09T13:40:47.627Z,24.13
2024-05-09T13:43:14.490Z,24.36
2024-05-09T13:45:41.038Z,24.11
2024-05-09T13:48:09.016Z,24.30
2024-05-09T13:50:36.813Z,23.61
2024-05-09T13:53:04.167Z,24.28
2024-05-09T13:55:30.618Z,24.35
2024-05-09T13:57:57.020Z,24.29
2024-05-09T14:00:37.721Z,24.42
2024-05-09T14:03:10.078Z,23.55
2024-05-09T14:05:36.660Z,24.79
2024-05-09T14:08:03.208Z,23.74
2024-05-09T14:10:31.761Z,22.82
2024-05-09T14:13:00.045Z,24.25
2024-05-09T14:15:26.677Z,23.19
2024-05-09T14:17:53.545Z,23.35
2024-05-09T14:20:28.671Z,22.27
2024-05-09T14:22:58.526Z,23.44
2024-05-09T14:25:27.416Z,24.08
2024-05-09T14:27:53.875Z,22.75
2024-05-09T14:30:29.767Z,22.24
2024-05-09T14:33:01.154Z,21.06
2024-05-09T14:35:27.616Z,22.96
2024-05-09T14:37:54.061Z,23.68
2024-05-09T14:40:31.104Z,22.91
2024-05-09T14:43:06.214Z,23.68
2024-05-09T14:45:33.684Z,22.66
2024-05-09T14:48:00.204Z,23.74
2024-05-09T14:50:34.709Z,23.81
2024-05-09T14:53:05.069Z,22.72
2024-05-09T14:55:31.636Z,22.54
2024-05-09T14:57:58.079Z,22.15
2024-05-09T15:00:28.978Z,21.79
2024-05-09T15:02:59.698Z,22.53
2024-05-09T15:05:26.350Z,22.59
2024-05-09T15:07:52.813Z,23.61
2024-05-09T15:10:26.634Z,24.04
2024-05-09T15:12:59.775Z,23.88
2024-05-09T15:15:26.169Z,23.94
2024-05-09T15:17:52.620Z,24.31
2024-05-09T15:20:27.434Z,24.14
2024-05-09T15:23:00.072Z,24.77
2024-05-09T15:25:26.468Z,24.88
2024-05-09T15:27:52.807Z,25.26
2024-05-09T15:30:28.127Z,25.46
2024-05-09T15:32:57.772Z,25.69
2024-05-09T15:35:24.198Z,26.06
2024-05-09T15:37:50.493Z,26.55
2024-05-09T15:40:26.200Z,26.77
2024-05-09T15:43:01.841Z,26.39
2024-05-09T15:45:28.526Z,27.13
2024-05-09T15:47:55.730Z,27.01
2024-05-09T15:50:31.995Z,26.97
2024-05-09T15:53:03.847Z,27.42
2024-05-09T15:55:32.844Z,27.85
2024-05-09T15:58:02.651Z,27.81
2024-05-09T16:00:37.034Z,28.32
2024-05-09T16:03:07.511Z,28.17
2024-05-09T16:05:34.342Z,28.76
2024-05-09T16:08:00.834Z,29.32
2024-05-09T16:10:32.413Z,28.61
2024-05-09T16:13:00.552Z,27.69
2024-05-09T16:15:26.872Z,28.77
2024-05-09T16:17:53.393Z,28.81
2024-05-09T16:20:33.179Z,27.49
2024-05-09T16:23:04.858Z,27.48
2024-05-09T16:25:31.183Z,26.74
2024-05-09T16:27:57.583Z,26.80
2024-05-09T16:30:31.533Z,27.76
2024-05-09T16:33:02.441Z,27.68
2024-05-09T16:35:29.391Z,27.80
2024-05-09T16:37:56.344Z,28.48
2024-05-09T16:40:30.267Z,28.62
2024-05-09T16:43:04.078Z,29.44
2024-05-09T16:45:30.813Z,29.84
2024-05-09T16:47:58.208Z,30.18
2024-05-09T16:50:29.499Z,30.72
2024-05-09T16:52:59.213Z,31.41
2024-05-09T16:55:25.454Z,31.30
2024-05-09T16:57:51.926Z,31.77
2024-05-09T17:00:26.485Z,32.71
2024-05-09T17:03:02.825Z,33.15
2024-05-09T17:05:29.460Z,33.46
2024-05-09T17:07:55.879Z,33.65
2024-05-09T17:10:26.938Z,33.23
2024-05-09T17:12:58.805Z,33.40
2024-05-09T17:15:26.358Z,34.34
2024-05-09T17:17:52.731Z,34.95
2024-05-09T17:20:29.259Z,35.61
2024-05-09T17:23:01.009Z,35.91
2024-05-09T17:25:27.327Z,36.07
2024-05-09T17:27:53.783Z,36.29
2024-05-09T17:30:28.690Z,36.95
2024-05-09T17:33:01.009Z,36.95
2024-05-09T17:35:27.512Z,37.28
2024-05-09T17:37:53.787Z,37.43
2024-05-09T17:40:30.037Z,37.82
2024-05-09T17:42:59.710Z,38.61
2024-05-09T17:45:26.255Z,38.91
2024-05-09T17:47:52.775Z,39.03
2024-05-09T17:50:27.282Z,39.50
2024-05-09T17:53:00.062Z,39.80
2024-05-09T17:55:26.418Z,40.10
2024-05-09T17:57:52.917Z,39.74
2024-05-09T18:00:28.783Z,40.50
2024-05-09T18:03:03.691Z,41.17
2024-05-09T18:05:30.420Z,41.35
2024-05-09T18:07:56.999Z,41.61
2024-05-09T18:10:30.145Z,41.80
2024-05-09T18:13:02.405Z,41.98
2024-05-09T18:15:29.048Z,42.52
2024-05-09T18:17:55.512Z,42.82
2024-05-09T18:20:32.566Z,42.19
2024-05-09T18:23:07.127Z,42.98
2024-05-09T18:25:33.621Z,43.94
2024-05-09T18:28:01.606Z,44.50
2024-05-09T18:30:33.887Z,44.52
2024-05-09T18:33:03.465Z,45.11
2024-05-09T18:35:30.111Z,44.91
2024-05-09T18:37:56.403Z,44.61
2024-05-09T18:40:31.240Z,44.71
2024-05-09T18:43:01.679Z,44.56
2024-05-09T18:45:28.318Z,44.84
2024-05-09T18:47:55.035Z,45.41
2024-05-09T18:50:31.633Z,45.61
2024-05-09T18:53:03.037Z,46.16
2024-05-09T18:55:29.552Z,46.04
2024-05-09T18:57:55.983Z,46.48
2024-05-09T19:00:32.975Z,46.91
2024-05-09T19:03:04.100Z,47.30
2024-05-09T19:05:30.855Z,47.56
2024-05-09T19:07:57.345Z,47.36
2024-05-09T19:10:28.793Z,47.55
2024-05-09T19:12:59.828Z,47.72
2024-05-09T19:15:26.189Z,47.88
2024-05-09T19:17:52.692Z,47.88
2024-05-09T19:20:25.456Z,48.06
2024-05-09T19:22:59.093Z,48.00
2024-05-09T19:25:25.335Z,47.97
2024-05-09T19:27:51.783Z,48.25
2024-05-09T19:30:28.899Z,48.61
2024-05-09T19:33:02.725Z,49.26
2024-05-09T19:35:29.307Z,49.28
2024-05-09T19:37:55.652Z,49.31
2024-05-09T19:40:28.965Z,49.06
2024-05-09T19:42:58.594Z,49.18
2024-05-09T19:45:25.066Z,48.82
2024-05-09T19:47:51.558Z,48.87
2024-05-09T19:50:26.434Z,49.48
2024-05-09T19:52:58.879Z,49.80
2024-05-09T19:55:25.156Z,49.89
2024-05-09T19:57:51.482Z,50.06
2024-05-09T20:00:22.377Z,50.03
2024-05-09T20:02:56.421Z,50.34
2024-05-09T20:05:23.686Z,50.40
2024-05-09T20:07:50.202Z,50.64
2024-05-09T20:10:23.461Z,50.91
2024-05-09T20:12:53.038Z,51.38
2024-05-09T20:15:19.516Z,51.20
2024-05-09T20:17:46.090Z,51.34
2024-05-09T20:20:20.763Z,52.11
2024-05-09T20:22:54.974Z,51.66
2024-05-09T20:25:21.338Z,50.10
2024-05-09T20:27:47.745Z,49.42
2024-05-09T20:30:20.923Z,49.44
2024-05-09T20:32:51.874Z,49.55
2024-05-09T20:35:18.127Z,49.87
2024-05-09T20:37:44.465Z,50.18
2024-05-09T20:40:18.167Z,50.48
2024-05-09T20:42:51.084Z,51.20
2024-05-09T20:45:17.500Z,50.97
2024-05-09T20:47:43.781Z,50.91
2024-05-09T20:50:20.183Z,51.13
2024-05-09T20:52:54.540Z,51.22
2024-05-09T20:55:21.101Z,51.36
2024-05-09T20:57:47.605Z,51.52
2024-05-09T21:00:18.730Z,51.68
2024-05-09T21:02:48.570Z,51.82
2024-05-09T21:05:15.092Z,52.01
2024-05-09T21:07:41.538Z,51.82
2024-05-09T21:10:15.283Z,52.10
2024-05-09T21:12:45.580Z,51.80
2024-05-09T21:15:12.001Z,50.35
2024-05-09T21:17:38.436Z,49.96
2024-05-09T21:20:11.384Z,49.77
2024-05-09T21:22:43.022Z,50.03
2024-05-09T21:25:09.533Z,50.22
2024-05-09T21:27:35.998Z,50.52
2024-05-09T21:30:03.226Z,51.11
2024-05-09T21:32:30.226Z,51.60
2024-05-09T21:34:56.596Z,51.70
2024-05-09T21:37:22.992Z,51.82
2024-05-09T21:39:49.346Z,52.48
2024-05-09T21:42:15.717Z,52.88
2024-05-09T21:44:42.427Z,53.06
2024-05-09T21:47:09.406Z,53.18
2024-05-09T21:49:35.715Z,53.18
2024-05-09T21:52:02.046Z,51.62
2024-05-09T21:54:28.477Z,50.86
2024-05-09T21:56:54.641Z,50.80
2024-05-09T21:59:20.940Z,50.84
2024-05-09T22:01:47.450Z,51.41
2024-05-09T22:04:13.935Z,52.03
2024-05-09T22:06:40.554Z,52.38
2024-05-09T22:09:06.875Z,52.80
2024-05-09T22:11:33.391Z,52.80
2024-05-09T22:13:59.619Z,53.12
2024-05-09T22:16:25.975Z,53.45
2024-05-09T22:18:52.442Z,53.69
2024-05-09T22:21:18.709Z,53.42
2024-05-09T22:23:44.951Z,52.04
2024-05-09T22:26:11.323Z,51.15
2024-05-09T22:28:37.633Z,50.94
2024-05-09T22:31:04.207Z,51.33
2024-05-09T22:33:30.979Z,51.74
2024-05-09T22:35:57.517Z,51.96
2024-05-09T22:38:23.852Z,52.46
2024-05-09T22:40:51.458Z,52.52
2024-05-09T22:43:23.155Z,52.87
2024-05-09T22:45:54.906Z,53.53
2024-05-09T22:48:22.551Z,54.22
2024-05-09T22:50:48.926Z,53.88
2024-05-09T22:53:15.397Z,52.48
2024-05-09T22:55:41.886Z,51.77
2024-05-09T22:58:08.352Z,51.42
2024-05-09T23:00:34.975Z,52.16
2024-05-09T23:03:02.158Z,52.21
2024-05-09T23:05:29.956Z,52.74
2024-05-09T23:07:56.366Z,53.03
2024-05-09T23:10:30.884Z,53.34
2024-05-09T23:13:01.610Z,53.80
2024-05-09T23:15:28.492Z,53.90
2024-05-09T23:17:55.108Z,54.54
2024-05-09T23:20:30.079Z,54.44
2024-05-09T23:23:03.780Z,52.69
2024-05-09T23:25:30.078Z,52.22
2024-05-09T23:27:56.418Z,52.41
2024-05-09T23:30:33.032Z,52.66
2024-05-09T23:33:04.595Z,53.12
2024-05-09T23:35:31.006Z,53.32
2024-05-09T23:37:57.351Z,53.38
2024-05-09T23:40:26.712Z,53.68
2024-05-09T23:43:00.521Z,53.83
2024-05-09T23:45:26.941Z,54.65
2024-05-09T23:47:53.379Z,54.76
2024-05-09T23:50:26.377Z,53.33
2024-05-09T23:52:58.938Z,52.74
2024-05-09T23:55:25.510Z,52.75
2024-05-09T23:57:51.819Z,53.15
